createdAt,value
2018-06-08T13:13:26.718Z,27.33
2018-06-08T13:15:55.919Z,26.91
2018-06-08T13:18:25.161Z,26.26
2018-06-08T13:20:54.378Z,26.45
2018-06-08T13:23:23.602Z,26.44
2018-06-08T13:25:52.897Z,26.84
2018-06-08T13:28:22.120Z,27.18
2018-06-08T13:30:51.381Z,28.16
2018-06-08T13:33:20.611Z,29.93
2018-06-08T13:35:49.838Z,30.34
2018-06-08T13:38:19.065Z,29.27
2018-06-08T13:40:48.313Z,29.85
2018-06-08T13:43:17.519Z,28.47
2018-06-08T13:45:46.768Z,29.41
2018-06-08T13:48:15.979Z,28.13
2018-06-08T13:50:45.297Z,28.65
2018-06-08T13:53:14.528Z,27.68
2018-06-08T13:55:43.795Z,27.41
2018-06-08T13:58:13.010Z,27.52
2018-06-08T14:00:43.559Z,27.13
2018-06-08T14:03:12.809Z,26.76
2018-06-08T14:05:42.023Z,26.65
2018-06-08T14:08:11.225Z,27.11
2018-06-08T14:10:40.455Z,27.63
2018-06-08T14:13:09.659Z,26.67
2018-06-08T14:15:39.062Z,26.26
2018-06-08T14:18:08.254Z,26.58
2018-06-08T14:20:37.464Z,26.63
2018-06-08T14:23:06.693Z,25.84
2018-06-08T14:25:35.894Z,25.93
2018-06-08T14:28:05.089Z,25.42
2018-06-08T14:30:34.307Z,24.52
2018-06-08T14:33:03.554Z,23.64
2018-06-08T14:35:32.751Z,23.19
2018-06-08T14:38:01.963Z,22.88
2018-06-08T14:40:31.170Z,22.50
2018-06-08T14:43:00.386Z,22.19
2018-06-08T14:45:29.611Z,20.99
2018-06-08T14:47:58.913Z,20.65
2018-06-08T14:50:28.126Z,20.32
2018-06-08T14:52:57.342Z,20.04
2018-06-08T14:55:26.800Z,20.17
2018-06-08T14:57:56.106Z,20.73
2018-06-08T15:00:25.437Z,20.33
2018-06-08T15:02:54.740Z,20.22
2018-06-08T15:05:23.946Z,20.23
2018-06-08T15:07:53.167Z,20.12
2018-06-08T15:10:22.546Z,20.19
2018-06-08T15:12:51.791Z,20.13
2018-06-08T15:15:20.857Z,20.01
2018-06-08T15:17:50.139Z,19.94
2018-06-08T15:20:19.369Z,19.82
2018-06-08T15:22:48.587Z,19.81
2018-06-08T15:25:18.466Z,19.89
2018-06-08T15:27:47.681Z,19.76
2018-06-08T15:30:16.895Z,19.77
2018-06-08T15:32:46.130Z,19.96
2018-06-08T15:35:15.557Z,19.92
2018-06-08T15:37:44.754Z,19.96
2018-06-08T15:40:13.954Z,19.67
2018-06-08T15:42:43.162Z,19.56
2018-06-08T15:45:12.382Z,19.96
2018-06-08T15:47:42.919Z,20.12
2018-06-08T15:50:12.129Z,20.21
2018-06-08T15:52:41.346Z,20.31
2018-06-08T15:55:10.564Z,20.35
2018-06-08T15:57:39.839Z,20.38
2018-06-08T16:00:09.038Z,20.31
2018-06-08T16:02:38.266Z,20.30
2018-06-08T16:05:07.466Z,20.09
2018-06-08T16:07:36.732Z,20.01
2018-06-08T16:10:05.974Z,19.68
2018-06-08T16:12:35.302Z,19.64
2018-06-08T16:15:04.569Z,19.83
2018-06-08T16:17:33.809Z,19.95
2018-06-08T16:20:03.054Z,19.86
2018-06-08T16:22:32.574Z,19.84
2018-06-08T16:25:01.736Z,19.91
2018-06-08T16:27:31.040Z,19.96
2018-06-08T16:30:00.294Z,20.02
2018-06-08T16:32:29.471Z,19.90
2018-06-08T16:34:58.762Z,19.82
2018-06-08T16:37:27.961Z,19.64
2018-06-08T16:39:57.170Z,19.51
2018-06-08T16:42:26.635Z,19.36
2018-06-08T16:44:56.016Z,19.18
2018-06-08T16:47:25.267Z,18.97
2018-06-08T16:49:54.506Z,19.16
2018-06-08T16:52:23.723Z,19.35
2018-06-08T16:54:53.005Z,19.70
2018-06-08T16:57:22.216Z,19.98
2018-06-08T16:59:51.413Z,19.60
2018-06-08T17:02:20.688Z,19.45
2018-06-08T17:04:49.929Z,19.51
2018-06-08T17:07:19.167Z,19.63
2018-06-08T17:09:48.133Z,19.58
2018-06-08T17:12:17.428Z,19.72
2018-06-08T17:14:46.774Z,19.69
2018-06-08T17:17:15.970Z,19.58
2018-06-08T17:19:45.208Z,19.37
2018-06-08T17:22:15.402Z,19.37
2018-06-08T17:24:44.602Z,19.40
2018-06-08T17:27:13.803Z,19.54
2018-06-08T17:29:43.021Z,19.54
2018-06-08T17:32:12.213Z,19.52
2018-06-08T17:34:41.421Z,19.67
2018-06-08T17:37:10.637Z,19.65
2018-06-08T17:39:39.835Z,19.66
2018-06-08T17:42:09.054Z,19.62
2018-06-08T17:44:38.271Z,19.67
2018-06-08T17:47:07.506Z,19.77
2018-06-08T17:49:36.787Z,19.78
2018-06-08T17:52:06.012Z,19.59
2018-06-08T17:54:35.239Z,19.67
2018-06-08T17:57:04.497Z,19.69
2018-06-08T17:59:33.691Z,19.68
2018-06-08T18:02:02.971Z,19.64
2018-06-08T18:04:32.233Z,19.38
2018-06-08T18:07:01.445Z,19.13
2018-06-08T18:09:30.419Z,19.29
2018-06-08T18:11:59.663Z,19.46
2018-06-08T18:14:28.866Z,19.14
2018-06-08T18:16:58.087Z,19.01
2018-06-08T18:19:27.332Z,18.97
2018-06-08T18:21:57.778Z,18.94
2018-06-08T18:24:27.018Z,18.93
2018-06-08T18:26:56.318Z,18.87
2018-06-08T18:29:25.524Z,18.66
2018-06-08T18:31:54.752Z,18.63
2018-06-08T18:34:24.022Z,18.40
2018-06-08T18:36:53.243Z,18.27
2018-06-08T18:39:22.449Z,18.55
2018-06-08T18:41:51.686Z,18.21
2018-06-08T18:44:20.914Z,18.20
2018-06-08T18:46:50.156Z,18.39
2018-06-08T18:49:19.367Z,18.16
2018-06-08T18:51:48.644Z,18.15
2018-06-08T18:54:17.940Z,17.78
2018-06-08T18:56:46.990Z,17.96
2018-06-08T18:59:16.268Z,18.05
2018-06-08T19:01:45.483Z,17.93
2018-06-08T19:04:14.782Z,17.70
2018-06-08T19:06:44.000Z,17.57
2018-06-08T19:09:13.230Z,17.31
2018-06-08T19:11:42.452Z,17.12
2018-06-08T19:14:11.684Z,17.39
2018-06-08T19:16:40.896Z,17.17
2018-06-08T19:19:10.109Z,17.26
2018-06-08T19:21:39.325Z,17.07
2018-06-08T19:24:08.550Z,17.04
2018-06-08T19:26:37.776Z,17.09
2018-06-08T19:29:07.103Z,16.98
2018-06-08T19:31:36.307Z,16.89
2018-06-08T19:34:05.546Z,16.73
2018-06-08T19:36:34.747Z,16.76
2018-06-08T19:39:06.010Z,16.77
2018-06-08T19:41:35.235Z,16.64
2018-06-08T19:44:04.454Z,16.37
2018-06-08T19:46:33.758Z,16.41
2018-06-08T19:49:02.985Z,16.39
2018-06-08T19:51:32.242Z,16.28
2018-06-08T19:54:01.444Z,15.95
2018-06-08T19:56:30.646Z,15.79
2018-06-08T19:58:59.849Z,15.68
2018-06-08T20:01:29.054Z,15.59
2018-06-08T20:03:58.278Z,15.77
2018-06-08T20:06:27.486Z,15.90
2018-06-08T20:08:56.768Z,15.97
2018-06-08T20:11:26.008Z,15.91
2018-06-08T20:13:55.236Z,15.94
2018-06-08T20:16:24.443Z,15.86
2018-06-08T20:18:53.969Z,15.79
2018-06-08T20:21:23.195Z,15.75
2018-06-08T20:23:52.466Z,15.72
2018-06-08T20:26:21.690Z,15.68
2018-06-08T20:28:50.927Z,15.67
2018-06-08T20:31:20.143Z,15.67
2018-06-08T20:33:49.373Z,15.77
2018-06-08T20:36:18.624Z,15.75
2018-06-08T20:38:47.828Z,15.63
2018-06-08T20:41:17.120Z,15.54
2018-06-08T20:43:46.691Z,15.50
2018-06-08T20:46:15.891Z,15.47
2018-06-08T20:48:45.135Z,15.19
2018-06-08T20:51:14.351Z,15.11
2018-06-08T20:53:43.851Z,15.02
2018-06-08T20:56:13.137Z,14.99
2018-06-08T20:58:42.359Z,14.99
2018-06-08T21:01:11.591Z,15.01
2018-06-08T21:03:40.810Z,14.87
2018-06-08T21:06:10.055Z,14.89
2018-06-08T21:08:39.347Z,15.03
2018-06-08T21:11:08.572Z,14.84
2018-06-08T21:13:37.778Z,14.84
2018-06-08T21:16:07.001Z,14.65
2018-06-08T21:18:36.227Z,14.58
2018-06-08T21:21:05.482Z,14.56
2018-06-08T21:23:34.719Z,14.50
2018-06-08T21:26:03.811Z,14.80
2018-06-08T21:28:33.076Z,14.52
2018-06-08T21:31:02.310Z,14.77
2018-06-08T21:33:31.543Z,14.91
2018-06-08T21:36:00.763Z,14.56
2018-06-08T21:38:29.988Z,14.53
2018-06-08T21:40:59.198Z,14.48
2018-06-08T21:43:28.417Z,14.47
2018-06-08T21:45:57.647Z,14.51
2018-06-08T21:48:26.882Z,14.76
2018-06-08T21:50:56.111Z,14.81
2018-06-08T21:53:25.335Z,14.73
2018-06-08T21:55:54.576Z,14.63
2018-06-08T21:58:23.824Z,14.67
2018-06-08T22:00:53.031Z,14.72
2018-06-08T22:03:22.318Z,14.58
2018-06-08T22:05:51.811Z,14.55
2018-06-08T22:08:21.032Z,14.58
2018-06-08T22:10:50.262Z,14.56
2018-06-08T22:13:19.480Z,14.54
2018-06-08T22:15:49.091Z,14.76
2018-06-08T22:18:18.311Z,15.01
2018-06-08T22:20:47.533Z,15.02
2018-06-08T22:23:16.866Z,14.91
2018-06-08T22:25:46.158Z,14.93
2018-06-08T22:28:15.374Z,14.93
2018-06-08T22:30:44.737Z,15.00
2018-06-08T22:33:13.963Z,14.80
2018-06-08T22:35:43.186Z,14.92
2018-06-08T22:38:12.419Z,14.97
2018-06-08T22:40:41.620Z,14.55
2018-06-08T22:43:10.852Z,14.45
2018-06-08T22:45:40.042Z,14.66
2018-06-08T22:48:09.258Z,14.66
2018-06-08T22:50:38.471Z,14.54
2018-06-08T22:53:07.780Z,14.43
2018-06-08T22:55:36.982Z,14.45
2018-06-08T22:58:06.218Z,14.43
2018-06-08T23:00:35.415Z,14.21
2018-06-08T23:03:04.622Z,14.41
2018-06-08T23:05:33.851Z,14.46
2018-06-08T23:08:03.053Z,14.35
2018-06-08T23:10:32.322Z,14.50
2018-06-08T23:13:01.533Z,14.29
2018-06-08T23:15:30.738Z,14.34
2018-06-08T23:17:59.952Z,14.11
2018-06-08T23:20:29.146Z,13.88
2018-06-08T23:22:58.382Z,13.93
2018-06-08T23:25:27.566Z,13.76
2018-06-08T23:27:56.794Z,13.74
2018-06-08T23:30:25.994Z,13.68
2018-06-08T23:32:55.228Z,13.64
2018-06-08T23:35:24.427Z,13.91
2018-06-08T23:37:53.629Z,14.01
2018-06-08T23:40:22.826Z,14.03
2018-06-08T23:42:52.060Z,14.08
2018-06-08T23:45:21.288Z,14.10
2018-06-08T23:47:50.562Z,14.12
2018-06-08T23:50:19.995Z,14.12
2018-06-08T23:52:49.225Z,14.03
2018-06-08T23:55:18.447Z,13.96
2018-06-08T23:57:47.678Z,13.98
